Time;durP1;ratioP1;P1;durP2;ratioP2;P2;SDS_P1;SDS_P2;PMS_P1;PMS_P2;Temp;Humidity;BMP_temperature;BMP_pressure;BME280_temperature;BME280_humidity;BME280_pressure;Samples;Min_cycle;Max_cycle;Signal;HPM_P1;HPM_P2
2023/04/09 00:01:55;;;;;;;63.72;27.08;;;;;;;10.14;100.00;102539.09;6100961;23;20022;-76
2023/04/09 00:04:23;;;;;;;64.28;28.20;;;;;;;10.23;100.00;102540.56;6100310;23;20013;-76
2023/04/09 00:06:49;;;;;;;65.93;27.15;;;;;;;10.08;100.00;102545.50;6100885;23;20414;-76
2023/04/09 00:09:15;;;;;;;60.20;24.90;;;;;;;9.96;100.00;102540.59;6075298;23;20045;-76
2023/04/09 00:11:40;;;;;;;59.95;25.95;;;;;;;10.02;100.00;102537.72;6074235;23;20104;-76
2023/04/09 00:14:06;;;;;;;60.22;25.48;;;;;;;10.05;100.00;102539.41;6074937;23;20017;-75
2023/04/09 00:16:31;;;;;;;61.70;26.88;;;;;;;10.17;100.00;102543.44;6076264;23;20021;-76
2023/04/09 00:18:58;;;;;;;66.30;27.05;;;;;;;10.17;100.00;102538.97;6099207;23;20025;-76
2023/04/09 00:21:23;;;;;;;60.40;25.77;;;;;;;10.18;100.00;102539.84;6069571;23;20113;-76
2023/04/09 00:23:49;;;;;;;68.63;27.17;;;;;;;10.22;100.00;102542.38;6098261;23;20022;-76
2023/04/09 00:26:14;;;;;;;60.67;26.67;;;;;;;10.25;100.00;102538.78;6097758;23;20029;-76
2023/04/09 00:28:40;;;;;;;66.63;28.00;;;;;;;10.23;100.00;102546.75;6101331;23;20437;-75
2023/04/09 00:31:07;;;;;;;60.50;26.33;;;;;;;10.23;100.00;102533.44;6102007;23;20013;-76
2023/04/09 00:33:32;;;;;;;61.15;26.88;;;;;;;10.54;100.00;102532.38;6103916;23;20340;-76
2023/04/09 00:35:58;;;;;;;65.70;27.10;;;;;;;10.55;100.00;102529.69;6105022;23;20002;-76
2023/04/09 00:38:23;;;;;;;59.60;26.30;;;;;;;10.58;100.00;102523.34;6105136;23;20090;-76
2023/04/09 00:40:50;;;;;;;57.78;25.55;;;;;;;10.40;100.00;102524.91;6106033;23;20738;-76
2023/04/09 00:43:18;;;;;;;56.25;27.02;;;;;;;10.51;100.00;102528.03;6101102;23;20021;-76
2023/04/09 00:45:44;;;;;;;61.33;26.85;;;;;;;10.36;100.00;102524.13;6102254;23;20080;-76
2023/04/09 00:48:12;;;;;;;61.78;27.05;;;;;;;10.45;100.00;102517.59;6101623;23;20021;-76
2023/04/09 00:50:37;;;;;;;57.15;25.70;;;;;;;10.33;100.00;102518.88;6100639;23;20124;-76
2023/04/09 00:53:06;;;;;;;61.10;27.55;;;;;;;10.57;100.00;102509.13;6101290;23;20041;-76
2023/04/09 00:55:32;;;;;;;59.13;27.00;;;;;;;10.73;100.00;102508.56;6103778;23;20064;-76
2023/04/09 00:57:58;;;;;;;59.78;27.15;;;;;;;10.62;100.00;102511.63;6099312;23;20021;-76
2023/04/09 01:00:26;;;;;;;59.67;25.88;;;;;;;10.42;100.00;102509.69;6095579;23;20018;-76
2023/04/09 01:02:55;;;;;;;54.90;24.58;;;;;;;10.10;100.00;102510.81;6071949;23;20064;-76
2023/04/09 01:05:21;;;;;;;53.38;23.70;;;;;;;10.16;100.00;102507.94;6073847;23;20563;-76
2023/04/09 01:08:07;;;;;;;54.92;25.42;;;;;;;10.33;100.00;102502.03;6102662;23;20017;-77
2023/04/09 01:10:36;;;;;;;49.75;24.85;;;;;;;10.38;100.00;102500.94;6101815;23;20017;-76
2023/04/09 01:13:12;;;;;;;54.72;25.25;;;;;;;10.47;100.00;102496.19;6076536;23;20073;-76
2023/04/09 01:15:52;;;;;;;56.00;24.58;;;;;;;10.43;100.00;102499.91;6069389;23;20456;-75
2023/04/09 01:18:42;;;;;;;54.20;24.90;;;;;;;10.38;100.00;102494.72;6047609;23;20009;-76
2023/04/09 01:21:13;;;;;;;49.83;22.48;;;;;;;10.26;100.00;102495.19;6101197;23;20022;-76
2023/04/09 01:24:11;;;;;;;50.97;24.90;;;;;;;10.32;100.00;102501.16;6074615;23;20014;-76
2023/04/09 01:26:45;;;;;;;53.50;24.02;;;;;;;10.33;100.00;102497.56;6068881;23;20430;-76
2023/04/09 01:29:12;;;;;;;62.28;25.38;;;;;;;10.12;100.00;102504.47;6099131;23;20181;-76
2023/04/09 01:31:41;;;;;;;57.30;24.55;;;;;;;10.29;100.00;102503.94;6076200;23;20021;-75
2023/04/09 01:34:10;;;;;;;55.95;24.98;;;;;;;10.25;100.00;102499.63;6069848;23;20010;-76
2023/04/09 01:36:37;;;;;;;54.28;23.85;;;;;;;10.44;100.00;102494.53;6100966;23;20704;-75
2023/04/09 01:39:05;;;;;;;52.08;24.42;;;;;;;10.66;100.00;102493.72;6072063;23;20033;-76
2023/04/09 01:41:33;;;;;;;51.15;24.02;;;;;;;10.55;100.00;102491.47;6071892;23;20097;-76
2023/04/09 01:44:02;;;;;;;50.25;23.25;;;;;;;10.77;100.00;102479.06;6097025;23;20023;-76
2023/04/09 01:46:28;;;;;;;56.10;24.77;;;;;;;10.34;100.00;102485.09;6072911;23;20121;-76
2023/04/09 01:48:56;;;;;;;57.40;25.10;;;;;;;10.43;100.00;102491.91;6073038;23;20325;-76
2023/04/09 01:51:21;;;;;;;53.78;24.42;;;;;;;10.03;100.00;102494.13;6098221;23;20076;-75
2023/04/09 01:53:49;;;;;;;53.50;25.88;;;;;;;10.05;100.00;102494.09;6071450;23;20632;-76
2023/04/09 01:56:14;;;;;;;57.42;27.25;;;;;;;10.15;100.00;102495.53;6097536;23;20018;-76
2023/04/09 01:58:40;;;;;;;52.58;25.52;;;;;;;10.25;100.00;102496.09;6071296;23;20729;-76
2023/04/09 02:01:11;;;;;;;60.80;26.35;;;;;;;10.42;100.00;102488.38;6072742;23;20066;-76
2023/04/09 02:03:45;;;;;;;56.85;25.83;;;;;;;10.54;100.00;102487.94;6098761;23;20020;-77
2023/04/09 02:06:23;;;;;;;61.75;25.33;;;;;;;10.19;100.00;102489.16;6068646;23;20014;-76
2023/04/09 02:08:52;;;;;;;55.00;24.27;;;;;;;10.36;100.00;102488.59;6071800;23;20018;-77
2023/04/09 02:11:22;;;;;;;69.55;27.23;;;;;;;10.34;100.00;102491.31;6097953;23;20439;-76
2023/04/09 02:13:48;;;;;;;55.17;23.85;;;;;;;10.47;100.00;102491.72;6096742;23;20017;-76
2023/04/09 02:16:16;;;;;;;56.08;24.17;;;;;;;10.30;100.00;102487.03;6071539;23;20009;-76
2023/04/09 02:18:41;;;;;;;52.70;25.17;;;;;;;10.16;100.00;102491.94;6072777;23;20055;-76
2023/04/09 02:21:07;;;;;;;52.83;24.13;;;;;;;10.04;100.00;102493.25;6096525;23;20784;-76
2023/04/09 02:23:35;;;;;;;55.92;24.02;;;;;;;10.18;100.00;102483.88;6072738;23;20022;-76
2023/04/09 02:26:01;;;;;;;46.58;22.77;;;;;;;10.11;100.00;102477.91;6098551;23;20022;-76
2023/04/09 02:28:27;;;;;;;54.15;24.30;;;;;;;10.26;100.00;102488.03;6078518;23;20024;-76
2023/04/09 02:30:52;;;;;;;56.40;24.23;;;;;;;10.36;100.00;102484.13;6077589;23;20016;-76
2023/04/09 02:33:18;;;;;;;52.47;24.52;;;;;;;10.26;100.00;102482.72;6102302;23;20445;-76
2023/04/09 02:35:43;;;;;;;50.30;21.65;;;;;;;9.99;100.00;102478.31;6099064;23;20073;-76
2023/04/09 02:38:14;;;;;;;43.63;21.23;;;;;;;10.03;100.00;102482.59;6097828;23;20226;-76
2023/04/09 02:40:40;;;;;;;50.63;22.40;;;;;;;10.36;100.00;102475.25;6095018;23;20018;-76
2023/04/09 02:43:07;;;;;;;48.33;22.23;;;;;;;10.06;100.00;102478.06;6068666;23;20079;-76
2023/04/09 02:45:35;;;;;;;48.58;22.90;;;;;;;9.97;100.00;102480.16;6071017;23;20666;-76
2023/04/09 02:48:00;;;;;;;47.90;22.48;;;;;;;10.26;100.00;102473.84;6071245;23;20120;-75
2023/04/09 02:50:28;;;;;;;49.42;22.60;;;;;;;10.10;100.00;102479.69;6046906;23;20119;-75
2023/04/09 02:52:54;;;;;;;50.50;23.20;;;;;;;10.26;100.00;102477.38;6096589;23;20018;-76
2023/04/09 02:55:21;;;;;;;47.95;23.52;;;;;;;9.92;100.00;102464.34;6096123;23;20353;-75
2023/04/09 02:57:46;;;;;;;50.97;22.52;;;;;;;9.99;100.00;102470.31;6097251;23;20013;-76
2023/04/09 03:00:12;;;;;;;48.67;22.10;;;;;;;9.95;100.00;102471.38;6073846;23;20022;-76
2023/04/09 03:02:38;;;;;;;48.75;22.20;;;;;;;9.79;100.00;102469.22;6069458;23;20456;-75
2023/04/09 03:05:05;;;;;;;50.28;23.02;;;;;;;9.85;100.00;102465.47;6099614;23;20516;-75
2023/04/09 03:07:30;;;;;;;55.22;25.23;;;;;;;9.78;100.00;102469.25;6046802;23;20057;-76
2023/04/09 03:09:56;;;;;;;50.92;23.92;;;;;;;9.77;100.00;102472.84;6097363;23;20409;-76
2023/04/09 03:12:22;;;;;;;52.80;21.95;;;;;;;9.85;100.00;102469.00;6092067;23;20018;-76
2023/04/09 03:14:50;;;;;;;53.40;23.35;;;;;;;9.63;100.00;102465.31;6091977;23;20025;-75
2023/04/09 03:17:17;;;;;;;52.20;22.65;;;;;;;9.67;100.00;102469.63;6091085;23;20046;-76
2023/04/09 03:19:45;;;;;;;51.30;22.00;;;;;;;9.51;100.00;102466.59;6067009;23;20016;-75
2023/04/09 03:22:12;;;;;;;46.33;21.75;;;;;;;9.63;100.00;102461.78;6074109;23;20014;-76
2023/04/09 03:24:38;;;;;;;51.33;22.35;;;;;;;9.75;100.00;102456.94;6075666;23;20048;-75
2023/04/09 03:27:05;;;;;;;52.33;23.13;;;;;;;9.78;100.00;102463.94;6075483;23;20014;-76
2023/04/09 03:29:31;;;;;;;58.38;23.92;;;;;;;9.60;100.00;102463.63;6073923;23;20441;-75
2023/04/09 03:31:58;;;;;;;49.13;20.73;;;;;;;9.43;100.00;102463.31;6073437;23;20041;-75
2023/04/09 03:34:23;;;;;;;49.05;22.80;;;;;;;9.50;100.00;102453.34;6072825;23;20018;-76
2023/04/09 03:36:52;;;;;;;55.80;23.45;;;;;;;9.55;100.00;102449.59;6070750;23;20010;-76
2023/04/09 03:39:24;;;;;;;51.05;23.45;;;;;;;9.62;100.00;102452.94;6100990;23;20006;-76
2023/04/09 03:41:50;;;;;;;53.28;22.98;;;;;;;9.67;100.00;102450.09;6073860;23;20417;-76
2023/04/09 03:44:17;;;;;;;48.60;23.58;;;;;;;9.64;100.00;102451.09;6072021;23;20029;-76
2023/04/09 03:46:59;;;;;;;53.00;23.20;;;;;;;9.57;100.00;102446.88;6073863;23;20021;-76
2023/04/09 03:49:26;;;;;;;47.10;22.80;;;;;;;9.76;100.00;102453.34;6072982;23;20821;-76
2023/04/09 03:51:54;;;;;;;51.80;24.02;;;;;;;9.52;100.00;102452.34;6095375;23;20021;-75
2023/04/09 03:54:21;;;;;;;52.38;23.75;;;;;;;9.43;100.00;102450.00;6090895;23;20014;-75
2023/04/09 03:56:47;;;;;;;54.45;22.33;;;;;;;9.38;100.00;102438.63;6091003;23;20515;-76
2023/04/09 03:59:18;;;;;;;52.33;24.58;;;;;;;9.31;100.00;102447.75;6093946;23;20059;-76
2023/04/09 04:01:46;;;;;;;47.13;22.60;;;;;;;9.10;100.00;102441.31;6060959;23;20080;-77
2023/04/09 04:04:12;;;;;;;53.90;23.85;;;;;;;8.98;100.00;102442.53;6063901;23;20014;-76
2023/04/09 04:06:50;;;;;;;56.60;24.80;;;;;;;8.82;100.00;102441.28;6067270;23;20018;-76
2023/04/09 04:09:39;;;;;;;59.13;24.98;;;;;;;8.78;100.00;102442.28;6068788;23;20667;-76
2023/04/09 04:12:10;;;;;;;55.30;23.73;;;;;;;8.63;100.00;102451.59;6067191;23;20121;-77
2023/04/09 04:14:54;;;;;;;52.38;21.77;;;;;;;8.45;100.00;102442.38;6064386;23;20137;-75
2023/04/09 04:17:28;;;;;;;55.65;23.38;;;;;;;8.51;100.00;102452.84;6063048;23;20686;-78
2023/04/09 04:19:54;;;;;;;57.47;23.70;;;;;;;8.50;100.00;102442.25;6061102;23;20015;-78
2023/04/09 04:22:22;;;;;;;55.50;23.23;;;;;;;8.35;100.00;102451.50;6065121;23;20022;-78
2023/04/09 04:24:51;;;;;;;55.33;23.40;;;;;;;8.23;100.00;102441.19;6065058;23;20025;-77
2023/04/09 04:27:19;;;;;;;55.85;23.75;;;;;;;8.27;100.00;102449.03;6069024;23;20117;-77
2023/04/09 04:29:45;;;;;;;51.53;22.67;;;;;;;8.00;100.00;102452.47;6065108;23;20030;-76
2023/04/09 04:32:21;;;;;;;47.80;22.15;;;;;;;8.01;100.00;102452.41;6066355;23;20101;-78
2023/04/09 04:34:49;;;;;;;51.17;23.30;;;;;;;8.20;100.00;102452.78;6045793;23;20018;-77
2023/04/09 04:37:21;;;;;;;54.25;24.30;;;;;;;7.92;100.00;102450.00;6076533;23;20114;-77
2023/04/09 04:39:47;;;;;;;60.20;24.08;;;;;;;7.91;100.00;102453.56;6063879;23;20021;-76
2023/04/09 04:42:15;;;;;;;52.85;22.73;;;;;;;7.89;100.00;102457.19;6066348;23;20018;-78
2023/04/09 04:44:42;;;;;;;54.80;22.90;;;;;;;7.95;100.00;102452.59;6064935;23;20457;-77
2023/04/09 04:47:24;;;;;;;53.22;23.25;;;;;;;7.75;100.00;102458.41;6062573;23;20106;-77
2023/04/09 04:49:50;;;;;;;57.08;24.35;;;;;;;7.83;100.00;102467.97;6066446;23;20014;-77
2023/04/09 04:52:16;;;;;;;54.00;23.10;;;;;;;7.61;100.00;102457.88;6066415;23;20014;-77
2023/04/09 04:54:45;;;;;;;55.15;22.83;;;;;;;7.63;100.00;102457.84;6065563;23;20124;-77
2023/04/09 04:57:17;;;;;;;54.92;23.60;;;;;;;7.51;100.00;102461.69;6065655;23;20058;-78
2023/04/09 04:59:42;;;;;;;55.00;22.63;;;;;;;7.60;100.00;102455.28;6067688;23;20018;-78
2023/04/09 05:02:10;;;;;;;53.03;23.27;;;;;;;7.66;100.00;102458.66;6065062;23;20026;-76
2023/04/09 05:04:49;;;;;;;51.78;22.20;;;;;;;7.22;100.00;102465.91;6066254;23;20021;-78
2023/04/09 05:07:19;;;;;;;50.38;21.73;;;;;;;7.38;100.00;102463.78;6037686;23;20014;-77
2023/04/09 05:09:49;;;;;;;55.72;22.20;;;;;;;7.72;100.00;102461.13;6067539;23;20072;-78
2023/04/09 05:12:16;;;;;;;54.33;23.70;;;;;;;7.42;100.00;102468.06;6064698;23;20018;-76
2023/04/09 05:14:46;;;;;;;57.97;22.87;;;;;;;7.65;100.00;102466.66;6067809;23;20026;-76
2023/04/09 05:17:12;;;;;;;54.85;22.88;;;;;;;7.23;100.00;102459.72;6067429;23;20018;-76
2023/04/09 05:19:41;;;;;;;63.97;24.45;;;;;;;7.69;100.00;102465.69;6064421;23;20021;-76
2023/04/09 05:22:08;;;;;;;50.75;24.58;;;;;;;7.77;100.00;102455.72;6067940;23;20061;-75
2023/04/09 05:24:34;;;;;;;64.10;25.05;;;;;;;7.44;100.00;102450.34;6066879;23;20350;-76
2023/04/09 05:27:00;;;;;;;54.58;24.42;;;;;;;7.78;100.00;102455.69;6065659;23;20022;-75
2023/04/09 05:29:27;;;;;;;52.30;22.65;;;;;;;7.65;100.00;102454.25;6066241;23;20267;-76
2023/04/09 05:31:53;;;;;;;57.65;24.35;;;;;;;7.82;100.00;102456.47;6066637;23;20010;-76
2023/04/09 05:34:35;;;;;;;57.00;22.80;;;;;;;7.67;100.00;102457.72;6080215;23;20010;-75
2023/04/09 05:37:02;;;;;;;63.13;24.25;;;;;;;8.03;100.00;102449.72;6076251;23;20014;-75
2023/04/09 05:39:28;;;;;;;60.78;24.63;;;;;;;7.62;100.00;102451.66;6072583;23;20025;-76
2023/04/09 05:41:55;;;;;;;53.80;22.45;;;;;;;7.83;100.00;102452.94;6046859;23;20022;-76
2023/04/09 05:44:23;;;;;;;55.05;25.10;;;;;;;8.02;100.00;102455.94;6066805;23;20117;-76
2023/04/09 05:46:53;;;;;;;54.67;23.67;;;;;;;8.07;100.00;102458.47;6064274;23;20047;-77
2023/04/09 05:49:23;;;;;;;56.83;22.85;;;;;;;8.03;100.00;102450.63;6065288;23;20042;-76
2023/04/09 05:51:51;;;;;;;53.53;24.10;;;;;;;8.07;100.00;102461.13;6066219;23;20125;-76
2023/04/09 05:54:23;;;;;;;57.58;24.30;;;;;;;8.10;100.00;102459.28;6066467;23;20741;-77
2023/04/09 05:56:48;;;;;;;51.42;23.33;;;;;;;8.46;100.00;102452.09;6067039;23;20109;-76
2023/04/09 05:59:14;;;;;;;55.50;23.67;;;;;;;8.46;100.00;102454.75;6067030;23;20025;-76
2023/04/09 06:01:40;;;;;;;55.17;24.00;;;;;;;8.23;100.00;102450.06;6065748;23;20026;-76
2023/04/09 06:04:05;;;;;;;55.75;23.08;;;;;;;8.40;100.00;102454.06;6064447;23;20919;-76
2023/04/09 06:06:31;;;;;;;50.20;23.73;;;;;;;8.67;100.00;102455.03;6067769;23;20019;-77
2023/04/09 06:08:58;;;;;;;52.72;24.15;;;;;;;8.63;100.00;102454.25;6066214;23;20014;-77
2023/04/09 06:11:25;;;;;;;51.40;22.63;;;;;;;8.62;100.00;102451.66;6066051;23;20093;-77
2023/04/09 06:13:51;;;;;;;58.75;23.65;;;;;;;8.50;100.00;102451.09;6069050;23;20024;-77
2023/04/09 06:16:17;;;;;;;58.50;24.02;;;;;;;8.96;100.00;102441.75;6065417;23;20018;-76
2023/04/09 06:18:45;;;;;;;56.22;23.73;;;;;;;9.13;100.00;102446.53;6066408;23;20022;-76
2023/04/09 06:21:12;;;;;;;51.83;23.70;;;;;;;9.01;100.00;102444.25;6069931;23;20776;-76
2023/04/09 06:23:39;;;;;;;50.28;23.33;;;;;;;8.96;100.00;102447.06;6069437;23;20021;-75
2023/04/09 06:26:05;;;;;;;50.15;21.35;;;;;;;9.18;100.00;102447.25;6065589;23;20019;-76
2023/04/09 06:28:32;;;;;;;58.78;23.90;;;;;;;9.59;100.00;102450.38;6063559;23;20303;-77
2023/04/09 06:30:57;;;;;;;54.10;22.95;;;;;;;10.03;100.00;102454.16;6041861;23;20471;-76
2023/04/09 06:33:26;;;;;;;52.15;24.27;;;;;;;10.25;100.00;102456.13;6066091;23;20105;-75
2023/04/09 06:35:51;;;;;;;56.45;24.63;;;;;;;9.90;100.00;102455.53;6068169;23;20042;-75
2023/04/09 06:38:17;;;;;;;55.88;25.40;;;;;;;10.36;100.00;102446.78;6065746;23;20069;-76
2023/04/09 06:40:43;;;;;;;57.30;23.98;;;;;;;11.03;100.00;102448.69;6041031;23;20860;-76
2023/04/09 06:43:09;;;;;;;53.97;25.50;;;;;;;10.81;100.00;102440.66;6064469;23;20097;-76
2023/04/09 06:45:41;;;;;;;;;;;;;;;10.81;100.00;102447.78;6062855;23;20100;-75
2023/04/09 06:48:07;;;;;;;51.67;23.90;;;;;;;11.09;100.00;102451.13;6065363;23;20321;-75
2023/04/09 06:50:32;;;;;;;50.40;22.52;;;;;;;11.12;100.00;102450.13;6062737;23;20145;-75
2023/04/09 06:52:58;;;;;;;50.38;24.35;;;;;;;11.63;100.00;102452.47;6062859;23;20014;-75
2023/04/09 06:55:23;;;;;;;47.25;21.77;;;;;;;11.74;95.72;102449.31;6064690;23;20077;-75
2023/04/09 06:57:49;;;;;;;50.55;24.00;;;;;;;11.55;97.32;102457.28;6065647;23;20010;-76
2023/04/09 07:00:15;;;;;;;46.28;21.73;;;;;;;11.91;94.79;102456.69;6070427;23;20025;-75
2023/04/09 07:02:41;;;;;;;47.03;22.48;;;;;;;11.95;91.76;102449.38;6094861;23;20045;-75
2023/04/09 07:05:09;;;;;;;50.90;22.42;;;;;;;12.09;94.10;102461.22;6044007;23;20010;-75
2023/04/09 07:07:35;;;;;;;45.95;22.80;;;;;;;12.58;92.74;102458.16;6093387;23;20077;-75
2023/04/09 07:10:01;;;;;;;48.90;24.08;;;;;;;12.12;91.11;102455.75;6094907;23;20010;-75
2023/04/09 07:12:31;;;;;;;47.25;21.90;;;;;;;12.27;88.77;102453.31;6092535;23;20020;-75
2023/04/09 07:14:58;;;;;;;48.83;24.17;;;;;;;12.40;91.00;102452.72;6095557;23;20839;-75
2023/04/09 07:17:23;;;;;;;48.38;22.77;;;;;;;12.54;85.44;102454.75;6093056;23;20022;-75
2023/04/09 07:19:50;;;;;;;49.10;23.10;;;;;;;13.10;85.00;102453.91;6096714;23;20092;-75
2023/04/09 07:22:17;;;;;;;47.40;22.92;;;;;;;13.05;82.32;102450.59;6065947;23;20029;-75
2023/04/09 07:24:42;;;;;;;44.00;22.50;;;;;;;12.84;85.01;102452.44;6096260;23;20381;-75
2023/04/09 07:27:08;;;;;;;47.65;23.35;;;;;;;13.18;82.46;102446.34;6073018;23;20413;-75
2023/04/09 07:29:35;;;;;;;46.88;24.45;;;;;;;12.87;85.29;102454.13;6097577;23;20790;-75
2023/04/09 07:32:01;;;;;;;43.67;21.23;;;;;;;13.09;82.80;102451.28;6096351;23;20017;-76
2023/04/09 07:34:28;;;;;;;44.67;21.38;;;;;;;13.16;83.75;102450.06;6091886;23;20013;-75
2023/04/09 07:36:54;;;;;;;43.20;21.17;;;;;;;12.52;83.52;102453.97;6092574;23;20810;-75
2023/04/09 07:39:21;;;;;;;43.95;21.55;;;;;;;12.83;84.02;102453.41;6089752;23;20040;-76
2023/04/09 07:41:47;;;;;;;49.88;23.08;;;;;;;13.48;84.42;102452.06;6092973;23;20018;-75
2023/04/09 07:44:13;;;;;;;42.63;21.63;;;;;;;13.80;79.24;102460.28;6092965;23;20136;-75
2023/04/09 07:46:39;;;;;;;44.28;21.80;;;;;;;13.28;80.18;102452.16;6091829;23;20037;-75
2023/04/09 07:49:05;;;;;;;44.08;22.20;;;;;;;13.65;79.28;102451.19;6094762;23;20014;-75
2023/04/09 07:51:30;;;;;;;40.63;21.83;;;;;;;13.97;76.29;102451.38;6066201;23;20017;-75
2023/04/09 07:53:56;;;;;;;40.80;22.50;;;;;;;13.46;77.48;102448.59;6064781;23;20077;-75
2023/04/09 07:56:22;;;;;;;46.45;22.63;;;;;;;13.86;76.50;102448.41;6092623;23;20025;-75
2023/04/09 07:58:48;;;;;;;38.42;21.15;;;;;;;13.67;76.94;102454.69;6092388;23;20006;-75
2023/04/09 08:01:14;;;;;;;43.40;21.70;;;;;;;13.40;78.23;102451.59;6090755;23;20060;-75
2023/04/09 08:03:40;;;;;;;48.40;23.02;;;;;;;14.00;76.64;102460.13;6088218;23;20021;-75
2023/04/09 08:06:06;;;;;;;44.65;21.88;;;;;;;13.84;79.25;102459.19;6062810;23;20022;-75
2023/04/09 08:08:31;;;;;;;41.03;21.55;;;;;;;13.44;79.53;102465.69;6089735;23;20104;-76
2023/04/09 08:10:57;;;;;;;39.80;20.92;;;;;;;13.97;75.93;102464.78;6088242;23;20988;-74
2023/04/09 08:13:24;;;;;;;39.67;20.40;;;;;;;14.25;75.99;102462.38;6092037;23;20025;-75
2023/04/09 08:15:49;;;;;;;39.67;19.88;;;;;;;13.86;74.14;102461.81;6092284;23;20365;-75
2023/04/09 08:18:15;;;;;;;37.63;19.42;;;;;;;13.26;76.08;102463.91;6092834;23;20456;-75
2023/04/09 08:20:43;;;;;;;41.47;21.05;;;;;;;14.01;77.95;102469.06;6091035;23;20061;-75
2023/04/09 08:23:10;;;;;;;37.55;19.80;;;;;;;14.60;74.17;102448.06;6062844;23;20475;-76
2023/04/09 08:25:36;;;;;;;34.17;17.75;;;;;;;14.51;70.00;102452.13;6066231;23;20101;-75
2023/04/09 08:28:01;;;;;;;35.35;20.15;;;;;;;14.51;70.64;102452.13;6092020;23;20085;-75
2023/04/09 08:30:27;;;;;;;34.78;19.25;;;;;;;14.86;69.65;102455.56;6092335;23;20891;-75
2023/04/09 08:32:53;;;;;;;39.13;20.33;;;;;;;14.70;72.71;102443.91;6065337;23;20225;-75
2023/04/09 08:35:22;;;;;;;32.85;17.83;;;;;;;13.95;71.98;102459.50;6063315;23;20414;-76
2023/04/09 08:37:47;;;;;;;37.60;19.73;;;;;;;14.39;73.13;102450.94;6092615;23;20074;-76
2023/04/09 08:40:13;;;;;;;34.72;18.27;;;;;;;13.95;73.68;102459.50;6093094;23;20026;-75
2023/04/09 08:42:52;;;;;;;35.40;19.55;;;;;;;14.15;73.75;102458.44;6065452;23;20717;-75
2023/04/09 08:45:18;;;;;;;38.03;19.77;;;;;;;13.79;73.42;102469.28;6095195;23;20113;-76
2023/04/09 08:47:45;;;;;;;40.47;19.77;;;;;;;13.98;72.14;102462.03;6096625;23;20716;-76
2023/04/09 08:50:12;;;;;;;38.33;19.40;;;;;;;14.55;70.66;102450.13;6095424;23;20535;-75
2023/04/09 08:52:39;;;;;;;34.97;16.58;;;;;;;13.97;68.14;102460.28;6096315;23;20021;-75
2023/04/09 08:55:10;;;;;;;35.42;17.90;;;;;;;13.73;69.73;102457.06;6097087;23;20079;-75
2023/04/09 08:57:40;;;;;;;30.83;16.50;;;;;;;14.05;68.97;102459.00;6095017;23;20010;-75
2023/04/09 09:00:08;;;;;;;33.45;17.92;;;;;;;14.12;66.32;102455.09;6097124;23;20018;-76
2023/04/09 09:02:34;;;;;;;32.67;17.00;;;;;;;14.61;66.71;102445.31;6071797;23;20017;-76
2023/04/09 09:05:00;;;;;;;31.05;16.90;;;;;;;13.98;66.43;102455.78;6072384;23;20037;-76
2023/04/09 09:07:30;;;;;;;31.55;16.38;;;;;;;14.35;64.33;102448.47;6092732;23;20724;-76
2023/04/09 09:10:02;;;;;;;28.25;14.88;;;;;;;14.19;66.96;102451.13;6070824;23;20055;-75
2023/04/09 09:12:29;;;;;;;;;;;;;;;14.06;66.81;102440.19;6095218;23;20100;-75
2023/04/09 09:14:55;;;;;;;28.67;14.52;;;;;;;14.61;65.48;102428.31;6094609;23;19917;-75
2023/04/09 09:17:20;;;;;;;34.75;17.20;;;;;;;14.38;68.17;102429.53;6096677;23;20017;-75
2023/04/09 09:19:46;;;;;;;32.63;16.77;;;;;;;14.93;69.00;102426.53;6095128;23;20696;-76
2023/04/09 09:22:12;;;;;;;33.78;16.60;;;;;;;14.45;65.26;102425.56;6098081;23;20018;-75
2023/04/09 09:24:49;;;;;;;36.30;15.57;;;;;;;14.17;65.75;102431.56;6098904;23;20077;-75
2023/04/09 09:27:35;;;;;;;34.88;16.92;;;;;;;14.23;65.60;102421.38;6098904;23;20090;-76
2023/04/09 09:30:04;;;;;;;29.40;16.83;;;;;;;14.90;67.29;102413.28;6099026;23;20318;-75
2023/04/09 09:32:31;;;;;;;29.85;16.08;;;;;;;14.33;66.49;102416.38;6071265;23;20177;-76
2023/04/09 09:35:06;;;;;;;29.40;15.88;;;;;;;14.85;65.94;102412.66;6097165;23;20018;-76
2023/04/09 09:37:32;;;;;;;31.80;16.02;;;;;;;14.80;64.56;102406.69;6095662;23;20006;-76
2023/04/09 09:39:59;;;;;;;26.55;14.80;;;;;;;14.53;61.92;102415.31;6098089;23;20024;-76
2023/04/09 09:42:25;;;;;;;32.05;15.48;;;;;;;14.93;62.45;102403.22;6096209;23;20018;-76
2023/04/09 09:44:53;;;;;;;31.08;14.85;;;;;;;14.57;63.61;102408.84;6073114;23;20018;-76
2023/04/09 09:47:20;;;;;;;28.13;15.25;;;;;;;15.53;65.38;102413.22;6071893;23;20021;-76
2023/04/09 09:49:49;;;;;;;24.15;13.35;;;;;;;14.51;60.60;102411.88;6099391;23;20032;-78
2023/04/09 09:52:19;;;;;;;27.90;13.68;;;;;;;14.65;59.10;102411.94;6099254;23;20160;-75
2023/04/09 09:54:51;;;;;;;27.25;14.52;;;;;;;15.00;63.45;102407.28;6096841;23;20025;-76
2023/04/09 09:57:22;;;;;;;31.30;15.00;;;;;;;14.61;61.83;102409.50;6097513;23;20069;-76
2023/04/09 10:00:00;;;;;;;28.25;13.20;;;;;;;14.83;61.61;102409.22;6072801;23;20056;-76
2023/04/09 10:02:29;;;;;;;27.13;13.00;;;;;;;14.67;58.27;102402.00;6095565;23;20057;-76
2023/04/09 10:05:00;;;;;;;22.85;11.25;;;;;;;15.00;60.06;102401.03;6096589;23;20087;-76
2023/04/09 10:07:25;;;;;;;24.02;12.32;;;;;;;15.10;58.97;102407.63;6095253;23;20013;-76
2023/04/09 10:09:55;;;;;;;24.65;10.88;;;;;;;14.89;56.65;102409.72;6097081;23;20096;-75
2023/04/09 10:12:22;;;;;;;19.27;9.98;;;;;;;14.94;54.84;102404.94;6068891;23;20076;-75
2023/04/09 10:15:03;;;;;;;18.27;10.35;;;;;;;14.83;55.04;102404.69;6097723;23;20014;-75
2023/04/09 10:17:29;;;;;;;19.73;10.30;;;;;;;15.57;55.72;102398.63;6070340;23;20049;-75
2023/04/09 10:20:13;;;;;;;20.30;9.98;;;;;;;15.48;54.79;102388.41;6072352;23;20958;-75
2023/04/09 10:22:39;;;;;;;18.88;9.57;;;;;;;14.62;54.64;102384.44;6098831;23;20393;-75
2023/04/09 10:25:05;;;;;;;21.70;11.52;;;;;;;15.10;55.92;102383.44;6071102;23;20034;-75
2023/04/09 10:27:31;;;;;;;16.70;9.05;;;;;;;14.90;55.36;102379.22;6097034;23;20095;-75
2023/04/09 10:29:59;;;;;;;16.92;9.15;;;;;;;15.79;54.23;102374.88;6097652;23;20785;-75
2023/04/09 10:32:26;;;;;;;15.40;8.30;;;;;;;14.95;53.45;102376.25;6097819;23;20525;-77
2023/04/09 10:34:56;;;;;;;16.52;9.32;;;;;;;15.65;54.46;102373.97;6070629;23;20037;-75
2023/04/09 10:37:26;;;;;;;18.23;8.70;;;;;;;15.41;53.26;102373.59;6097602;23;20009;-75
2023/04/09 10:39:52;;;;;;;16.38;8.25;;;;;;;15.11;52.37;102374.44;6094818;23;20090;-75
2023/04/09 10:42:42;;;;;;;14.85;8.52;;;;;;;15.75;55.00;102373.34;6091955;23;20032;-75
2023/04/09 10:45:12;;;;;;;16.85;8.73;;;;;;;15.13;52.62;102372.53;6090519;23;20006;-75
2023/04/09 10:47:40;;;;;;;19.92;9.98;;;;;;;15.65;53.61;102363.22;6093060;23;20053;-75
2023/04/09 10:50:16;;;;;;;15.68;8.57;;;;;;;14.87;54.33;102363.28;6092533;23;20021;-75
2023/04/09 10:52:43;;;;;;;14.07;8.00;;;;;;;15.37;54.36;102362.16;6092414;23;20629;-75
2023/04/09 10:55:09;;;;;;;15.32;9.18;;;;;;;16.00;53.57;102366.44;6093288;23;20014;-75
2023/04/09 10:57:35;;;;;;;17.05;8.98;;;;;;;16.11;54.26;102349.63;6093582;23;20764;-76
2023/04/09 11:00:01;;;;;;;17.35;8.70;;;;;;;16.04;54.50;102357.22;6093321;23;20021;-75
2023/04/09 11:02:26;;;;;;;12.88;8.02;;;;;;;15.22;53.00;102360.38;6095853;23;20017;-74
2023/04/09 11:05:01;;;;;;;16.20;8.68;;;;;;;15.42;53.27;102360.06;6044506;23;20018;-75
2023/04/09 11:07:29;;;;;;;13.63;8.05;;;;;;;15.26;53.31;102359.22;6094012;23;20025;-76
2023/04/09 11:09:54;;;;;;;14.18;8.27;;;;;;;15.98;55.23;102354.94;6065352;23;20048;-75
2023/04/09 11:12:20;;;;;;;14.95;7.72;;;;;;;14.74;51.96;102352.38;6092738;23;20018;-76
2023/04/09 11:14:45;;;;;;;15.15;8.68;;;;;;;15.47;55.02;102357.13;6068354;23;20022;-74